Time,TemperatureF,DewpointF,PressureIn,WindDirection,WindDirectionDegrees,WindSpeedMPH,WindSpeedGustMPH,Humidity,HourlyPrecipIn,Conditions,Clouds,dailyrainin,SoftwareType,DateUTC
2013-01-25 00:00:00,45.6,45.1,30.11,NE,47,0.0,0.0,98,0.00,,,0.15,Wunderground v.1.15,2013-01-25 08:00:00,
2013-01-25 00:06:00,45.6,45.1,30.11,SSE,147,0.0,1.0,98,0.00,,,0.00,Wunderground v.1.15,2013-01-25 08:06:00,
2013-01-25 00:12:00,45.6,45.1,30.11,SSE,147,0.0,0.0,98,0.00,,,0.00,Wunderground v.1.15,2013-01-25 08:12:00,
2013-01-25 00:18:00,45.7,45.2,30.11,SSE,147,0.0,2.0,98,0.04,,,0.01,Wunderground v.1.15,2013-01-25 08:18:00,
2013-01-25 00:23:00,45.8,45.3,30.11,SSE,147,0.0,1.0,98,0.04,,,0.01,Wunderground v.1.15,2013-01-25 08:23:00,
2013-01-25 00:29:00,45.8,45.3,30.11,SSE,147,0.0,1.0,98,0.04,,,0.01,Wunderground v.1.15,2013-01-25 08:29:00,
2013-01-25 00:34:00,45.9,45.4,30.11,SSE,147,0.0,1.0,98,0.00,,,0.01,Wunderground v.1.15,2013-01-25 08:34:00,
2013-01-25 00:39:00,46.0,45.5,30.11,SSE,147,0.0,1.0,98,0.00,,,0.01,Wunderground v.1.15,2013-01-25 08:39:00,
2013-01-25 00:44:00,46.0,45.5,30.11,SSE,147,0.0,0.0,98,0.00,,,0.02,Wunderground v.1.15,2013-01-25 08:44:00,
2013-01-25 00:49:00,46.0,45.5,30.11,SSE,147,0.0,0.0,98,0.00,,,0.02,Wunderground v.1.15,2013-01-25 08:49:00,
2013-01-25 00:54:00,46.1,45.6,30.11,SSE,147,0.0,0.0,98,0.06,,,0.03,Wunderground v.1.15,2013-01-25 08:54:00,
2013-01-25 01:00:00,46.1,45.6,30.11,SSE,147,0.0,0.0,98,0.06,,,0.03,Wunderground v.1.15,2013-01-25 09:00:00,
2013-01-25 01:06:00,46.0,45.5,30.11,SSE,147,0.0,0.0,98,0.05,,,0.04,Wunderground v.1.15,2013-01-25 09:06:00,
2013-01-25 01:12:00,46.1,45.6,30.10,SSE,147,0.0,0.0,98,0.05,,,0.04,Wunderground v.1.15,2013-01-25 09:12:00,
2013-01-25 01:18:00,46.1,45.6,30.10,SSE,147,0.0,0.0,98,0.04,,,0.05,Wunderground v.1.15,2013-01-25 09:18:00,
2013-01-25 01:24:00,46.2,45.7,30.10,SSE,147,0.0,0.0,98,0.04,,,0.05,Wunderground v.1.15,2013-01-25 09:24:00,
2013-01-25 01:30:00,46.3,45.8,30.10,SSE,147,0.0,0.0,98,0.04,,,0.05,Wunderground v.1.15,2013-01-25 09:30:00,
2013-01-25 01:36:00,46.2,45.7,30.10,SSE,147,0.0,0.0,98,0.04,,,0.06,Wunderground v.1.15,2013-01-25 09:36:00,
2013-01-25 01:42:00,46.3,45.8,30.10,SSE,147,0.0,0.0,98,0.04,,,0.06,Wunderground v.1.15,2013-01-25 09:42:00,
2013-01-25 01:48:00,46.3,45.8,30.10,SSE,147,0.0,0.0,98,0.04,,,0.06,Wunderground v.1.15,2013-01-25 09:48:00,
2013-01-25 01:53:00,46.3,45.8,30.10,SSE,147,0.0,0.0,98,0.04,,,0.07,Wunderground v.1.15,2013-01-25 09:53:00,
2013-01-25 01:58:00,46.5,46.0,30.10,SE,142,0.0,0.0,98,0.04,,,0.07,Wunderground v.1.15,2013-01-25 09:58:00,
2013-01-25 02:04:00,46.5,46.0,30.10,SE,142,0.0,0.0,98,0.04,,,0.07,Wunderground v.1.15,2013-01-25 10:04:00,
2013-01-25 02:10:00,46.4,45.9,30.10,SE,142,0.0,0.0,98,0.04,,,0.08,Wunderground v.1.15,2013-01-25 10:10:00,
2013-01-25 02:16:00,46.3,45.8,30.10,SE,142,0.0,0.0,98,0.05,,,0.09,Wunderground v.1.15,2013-01-25 10:16:00,
2013-01-25 02:22:00,46.2,45.7,30.10,SE,142,0.0,0.0,98,0.05,,,0.09,Wunderground v.1.15,2013-01-25 10:22:00,
2013-01-25 02:28:00,46.2,45.7,30.10,SE,142,0.0,0.0,98,0.05,,,0.09,Wunderground v.1.15,2013-01-25 10:28:00,
2013-01-25 02:33:00,46.2,45.7,30.10,SE,142,0.0,0.0,98,0.04,,,0.10,Wunderground v.1.15,2013-01-25 10:33:00,
2013-01-25 02:39:00,46.3,45.8,30.10,SE,142,0.0,0.0,98,0.04,,,0.10,Wunderground v.1.15,2013-01-25 10:39:00,
2013-01-25 02:45:00,46.4,45.9,30.10,SE,142,0.0,0.0,98,0.04,,,0.10,Wunderground v.1.15,2013-01-25 10:45:00,
2013-01-25 02:51:00,46.5,46.0,30.09,SE,142,0.0,0.0,98,0.04,,,0.11,Wunderground v.1.15,2013-01-25 10:51:00,
2013-01-25 02:57:00,46.5,46.0,30.09,SE,142,0.0,0.0,98,0.04,,,0.11,Wunderground v.1.15,2013-01-25 10:57:00,
2013-01-25 03:03:00,46.5,46.0,30.09,SE,142,0.0,0.0,98,0.05,,,0.12,Wunderground v.1.15,2013-01-25 11:03:00,
2013-01-25 03:09:00,46.5,46.0,30.09,SE,142,0.0,0.0,98,0.05,,,0.12,Wunderground v.1.15,2013-01-25 11:09:00,
2013-01-25 03:15:00,46.4,45.9,30.09,SE,142,0.0,0.0,98,0.04,,,0.12,Wunderground v.1.15,2013-01-25 11:15:00,
2013-01-25 03:21:00,46.3,45.8,30.09,SE,142,0.0,0.0,98,0.04,,,0.13,Wunderground v.1.15,2013-01-25 11:21:00,
2013-01-25 03:27:00,46.4,45.9,30.09,SE,142,0.0,0.0,98,0.04,,,0.13,Wunderground v.1.15,2013-01-25 11:27:00,
2013-01-25 03:33:00,46.3,45.8,30.09,SE,142,0.0,0.0,98,0.04,,,0.14,Wunderground v.1.15,2013-01-25 11:33:00,
2013-01-25 03:38:00,46.3,46.0,30.09,SE,142,0.0,1.0,99,0.04,,,0.14,Wunderground v.1.15,2013-01-25 11:38:00,
2013-01-25 03:44:00,46.3,46.0,30.09,SE,142,0.0,0.0,99,0.08,,,0.15,Wunderground v.1.15,2013-01-25 11:44:00,
2013-01-25 03:50:00,46.2,45.9,30.08,SE,142,0.0,0.0,99,0.07,,,0.16,Wunderground v.1.15,2013-01-25 11:50:00,
2013-01-25 03:56:00,46.3,46.0,30.08,SE,142,0.0,1.0,99,0.07,,,0.16,Wunderground v.1.15,2013-01-25 11:56:00,
2013-01-25 04:02:00,46.5,46.2,30.08,SE,142,0.0,0.0,99,0.07,,,0.17,Wunderground v.1.15,2013-01-25 12:02:00,
2013-01-25 04:08:00,46.4,46.1,30.08,SE,142,0.0,0.0,99,0.05,,,0.17,Wunderground v.1.15,2013-01-25 12:08:00,
2013-01-25 04:14:00,46.3,46.0,30.08,SE,142,0.0,0.0,99,0.00,,,0.17,Wunderground v.1.15,2013-01-25 12:14:00,
2013-01-25 04:20:00,46.3,46.0,30.08,SE,142,0.0,0.0,99,0.00,,,0.17,Wunderground v.1.15,2013-01-25 12:20:00,
2013-01-25 04:26:00,46.3,46.0,30.07,SE,142,0.0,0.0,99,0.00,,,0.18,Wunderground v.1.15,2013-01-25 12:26:00,
2013-01-25 04:32:00,46.5,46.2,30.08,NNE,32,0.0,2.0,99,0.00,,,0.18,Wunderground v.1.15,2013-01-25 12:32:00,
2013-01-25 04:38:00,46.7,46.4,30.08,NNE,32,0.0,2.0,99,0.00,,,0.18,Wunderground v.1.15,2013-01-25 12:38:00,
2013-01-25 04:44:00,46.6,46.3,30.08,ENE,63,0.0,2.0,99,0.00,,,0.19,Wunderground v.1.15,2013-01-25 12:44:00,
2013-01-25 04:50:00,47.0,46.7,30.08,ENE,63,1.0,1.0,99,0.00,,,0.19,Wunderground v.1.15,2013-01-25 12:50:00,
2013-01-25 04:55:00,47.2,46.9,30.08,NE,48,1.0,2.0,99,0.05,,,0.20,Wunderground v.1.15,2013-01-25 12:55:00,
2013-01-25 05:01:00,47.2,46.9,30.07,NE,48,0.0,0.0,99,0.05,,,0.20,Wunderground v.1.15,2013-01-25 13:01:00,
2013-01-25 05:06:00,46.9,46.6,30.08,NE,48,0.0,1.0,99,0.04,,,0.20,Wunderground v.1.15,2013-01-25 13:06:00,
2013-01-25 05:12:00,47.0,46.7,30.07,NE,48,0.0,0.0,99,0.00,,,0.21,Wunderground v.1.15,2013-01-25 13:12:00,
2013-01-25 05:18:00,46.9,46.6,30.08,NE,48,0.0,0.0,99,0.00,,,0.21,Wunderground v.1.15,2013-01-25 13:18:00,
2013-01-25 05:24:00,47.1,46.8,30.07,NNE,31,0.0,3.0,99,0.00,,,0.21,Wunderground v.1.15,2013-01-25 13:24:00,
2013-01-25 05:30:00,47.3,47.0,30.07,NE,51,1.0,1.0,99,0.00,,,0.22,Wunderground v.1.15,2013-01-25 13:30:00,
2013-01-25 05:36:00,47.4,47.1,30.07,NE,51,0.0,1.0,99,0.00,,,0.22,Wunderground v.1.15,2013-01-25 13:36:00,
2013-01-25 05:42:00,47.4,47.1,30.07,NE,51,0.0,1.0,99,0.00,,,0.22,Wunderground v.1.15,2013-01-25 13:42:00,
2013-01-25 05:48:00,47.4,47.1,30.07,NE,51,0.0,1.0,99,0.00,,,0.23,Wunderground v.1.15,2013-01-25 13:48:00,
2013-01-25 05:54:00,47.4,47.1,30.07,NE,51,0.0,0.0,99,0.00,,,0.23,Wunderground v.1.15,2013-01-25 13:54:00,
2013-01-25 06:00:00,47.4,47.1,30.06,NE,51,0.0,0.0,99,0.00,,,0.23,Wunderground v.1.15,2013-01-25 14:00:00,
2013-01-25 06:06:00,47.5,47.2,30.06,NE,50,0.0,1.0,99,0.00,,,0.23,Wunderground v.1.15,2013-01-25 14:06:00,
2013-01-25 06:12:00,47.6,47.3,30.06,NE,50,1.0,1.0,99,0.00,,,0.24,Wunderground v.1.15,2013-01-25 14:12:00,
2013-01-25 06:18:00,47.7,47.4,30.06,NE,50,0.0,1.0,99,0.00,,,0.24,Wunderground v.1.15,2013-01-25 14:18:00,
2013-01-25 06:24:00,47.7,47.4,30.06,NE,50,0.0,2.0,99,0.06,,,0.25,Wunderground v.1.15,2013-01-25 14:24:00,
2013-01-25 06:30:00,47.4,47.1,30.06,NE,50,0.0,0.0,99,0.05,,,0.25,Wunderground v.1.15,2013-01-25 14:30:00,
2013-01-25 06:35:00,47.2,46.9,30.06,NE,50,0.0,0.0,99,0.04,,,0.25,Wunderground v.1.15,2013-01-25 14:35:00,
2013-01-25 06:40:00,47.2,46.9,30.06,NE,50,0.0,0.0,99,0.00,,,0.26,Wunderground v.1.15,2013-01-25 14:40:00,
2013-01-25 06:46:00,47.2,46.9,30.06,NE,50,0.0,1.0,99,0.09,,,0.27,Wunderground v.1.15,2013-01-25 14:46:00,
2013-01-25 06:51:00,47.4,47.1,30.06,NE,50,0.0,0.0,99,0.09,,,0.27,Wunderground v.1.15,2013-01-25 14:51:00,
2013-01-25 06:57:00,47.6,47.3,30.06,NE,50,0.0,1.0,99,0.05,,,0.27,Wunderground v.1.15,2013-01-25 14:57:00,
2013-01-25 07:03:00,47.8,47.5,30.06,NE,50,0.0,2.0,99,0.00,,,0.27,Wunderground v.1.15,2013-01-25 15:03:00,
2013-01-25 07:09:00,47.8,47.5,30.05,NE,50,1.0,2.0,99,0.00,,,0.28,Wunderground v.1.15,2013-01-25 15:09:00,
2013-01-25 07:14:00,47.5,47.2,30.06,NE,50,0.0,1.0,99,0.00,,,0.28,Wunderground v.1.15,2013-01-25 15:14:00,
2013-01-25 07:20:00,47.6,47.3,30.05,NE,50,0.0,0.0,99,0.00,,,0.28,Wunderground v.1.15,2013-01-25 15:20:00,
2013-01-25 07:26:00,47.6,47.3,30.05,NE,50,0.0,0.0,99,0.04,,,0.29,Wunderground v.1.15,2013-01-25 15:26:00,
2013-01-25 07:32:00,47.6,47.3,30.06,NE,50,0.0,0.0,99,0.04,,,0.29,Wunderground v.1.15,2013-01-25 15:32:00,
2013-01-25 07:38:00,47.3,47.0,30.06,NE,50,0.0,0.0,99,0.05,,,0.30,Wunderground v.1.15,2013-01-25 15:38:00,
2013-01-25 07:44:00,47.2,46.9,30.05,NE,50,0.0,0.0,99,0.10,,,0.31,Wunderground v.1.15,2013-01-25 15:44:00,
2013-01-25 07:50:00,47.4,47.1,30.06,NE,50,0.0,0.0,99,0.07,,,0.31,Wunderground v.1.15,2013-01-25 15:50:00,
2013-01-25 07:56:00,47.4,47.1,30.06,NE,50,0.0,0.0,99,0.04,,,0.32,Wunderground v.1.15,2013-01-25 15:56:00,
2013-01-25 08:02:00,47.7,47.4,30.05,NE,50,0.0,0.0,99,0.04,,,0.32,Wunderground v.1.15,2013-01-25 16:02:00,
2013-01-25 08:07:00,47.9,47.6,30.05,NE,50,0.0,0.0,99,0.10,,,0.33,Wunderground v.1.15,2013-01-25 16:07:00,
2013-01-25 08:13:00,47.9,47.6,30.05,NE,50,0.0,0.0,99,0.07,,,0.34,Wunderground v.1.15,2013-01-25 16:13:00,
2013-01-25 08:19:00,47.9,47.6,30.05,NE,50,0.0,0.0,99,0.07,,,0.34,Wunderground v.1.15,2013-01-25 16:19:00,
2013-01-25 08:25:00,48.0,47.7,30.05,NE,50,0.0,0.0,99,0.07,,,0.35,Wunderground v.1.15,2013-01-25 16:25:00,
2013-01-25 08:30:00,48.0,47.7,30.05,NE,51,0.0,0.0,99,0.06,,,0.36,Wunderground v.1.15,2013-01-25 16:30:00,
2013-01-25 08:36:00,47.9,47.6,30.05,NE,51,0.0,0.0,99,0.06,,,0.36,Wunderground v.1.15,2013-01-25 16:36:00,
2013-01-25 08:41:00,48.1,47.8,30.05,NE,51,0.0,0.0,99,0.06,,,0.37,Wunderground v.1.15,2013-01-25 16:41:00,
2013-01-25 08:47:00,48.2,47.9,30.05,North,9,0.0,1.0,99,0.06,,,0.37,Wunderground v.1.15,2013-01-25 16:47:00,
2013-01-25 08:52:00,48.3,48.0,30.05,North,9,0.0,2.0,99,0.04,,,0.37,Wunderground v.1.15,2013-01-25 16:52:00,
2013-01-25 08:58:00,48.3,48.0,30.05,North,9,0.0,2.0,99,0.04,,,0.38,Wunderground v.1.15,2013-01-25 16:58:00,
2013-01-25 09:04:00,48.2,47.9,30.05,North,9,0.0,0.0,99,0.04,,,0.38,Wunderground v.1.15,2013-01-25 17:04:00,
2013-01-25 09:09:00,48.1,47.8,30.05,North,9,0.0,0.0,99,0.04,,,0.39,Wunderground v.1.15,2013-01-25 17:09:00,
2013-01-25 09:15:00,48.1,47.8,30.06,North,9,0.0,0.0,99,0.04,,,0.39,Wunderground v.1.15,2013-01-25 17:15:00,
2013-01-25 09:21:00,48.3,48.0,30.06,North,9,0.0,0.0,99,0.04,,,0.39,Wunderground v.1.15,2013-01-25 17:21:00,
2013-01-25 09:27:00,48.4,48.1,30.06,North,9,0.0,1.0,99,0.00,,,0.40,Wunderground v.1.15,2013-01-25 17:27:00,
2013-01-25 09:32:00,48.5,48.2,30.06,North,9,0.0,0.0,99,0.00,,,0.40,Wunderground v.1.15,2013-01-25 17:32:00,
2013-01-25 09:38:00,48.5,48.2,30.06,WSW,255,0.0,2.0,99,0.09,,,0.41,Wunderground v.1.15,2013-01-25 17:38:00,
2013-01-25 09:43:00,48.6,48.3,30.06,WSW,255,0.0,0.0,99,0.06,,,0.41,Wunderground v.1.15,2013-01-25 17:43:00,
2013-01-25 09:49:00,48.7,48.4,30.06,North,355,0.0,2.0,99,0.04,,,0.41,Wunderground v.1.15,2013-01-25 17:49:00,
2013-01-25 09:55:00,48.8,48.5,30.06,North,355,0.0,0.0,99,0.00,,,0.41,Wunderground v.1.15,2013-01-25 17:55:00,
2013-01-25 10:01:00,48.8,48.5,30.06,North,355,0.0,0.0,99,0.00,,,0.41,Wunderground v.1.15,2013-01-25 18:01:00,
2013-01-25 10:07:00,48.9,48.6,30.06,North,355,0.0,0.0,99,0.00,,,0.41,Wunderground v.1.15,2013-01-25 18:07:00,
2013-01-25 10:12:00,48.8,48.5,30.06,North,355,0.0,0.0,99,0.00,,,0.41,Wunderground v.1.15,2013-01-25 18:12:00,
2013-01-25 10:17:00,48.8,48.5,30.06,North,355,0.0,0.0,99,0.00,,,0.42,Wunderground v.1.15,2013-01-25 18:17:00,
2013-01-25 10:22:00,48.9,48.6,30.06,North,355,0.0,0.0,99,0.00,,,0.42,Wunderground v.1.15,2013-01-25 18:22:00,
2013-01-25 10:28:00,48.9,48.6,30.06,North,5,0.0,2.0,99,0.00,,,0.42,Wunderground v.1.15,2013-01-25 18:28:00,
2013-01-25 10:34:00,49.1,48.8,30.06,NNE,13,1.0,2.0,99,0.00,,,0.42,Wunderground v.1.15,2013-01-25 18:34:00,
2013-01-25 10:40:00,49.2,48.9,30.06,NNE,13,0.0,0.0,99,0.00,,,0.42,Wunderground v.1.15,2013-01-25 18:40:00,
2013-01-25 10:46:00,49.3,49.0,30.06,NNE,13,0.0,0.0,99,0.00,,,0.42,Wunderground v.1.15,2013-01-25 18:46:00,
2013-01-25 10:52:00,49.4,49.1,30.05,ESE,106,0.0,2.0,99,0.00,,,0.42,Wunderground v.1.15,2013-01-25 18:52:00,
2013-01-25 10:58:00,49.4,49.1,30.05,ESE,106,0.0,2.0,99,0.00,,,0.43,Wunderground v.1.15,2013-01-25 18:58:00,
2013-01-25 11:03:00,49.5,49.2,30.05,ESE,106,0.0,0.0,99,0.00,,,0.43,Wunderground v.1.15,2013-01-25 19:03:00,
2013-01-25 11:08:00,49.6,49.3,30.05,ESE,106,0.0,2.0,99,0.00,,,0.43,Wunderground v.1.15,2013-01-25 19:08:00,
2013-01-25 11:14:00,49.6,49.3,30.05,West,273,0.0,2.0,99,0.00,,,0.43,Wunderground v.1.15,2013-01-25 19:14:00,
2013-01-25 11:20:00,49.7,49.4,30.05,NNW,347,0.0,0.0,99,0.00,,,0.43,Wunderground v.1.15,2013-01-25 19:20:00,
2013-01-25 11:26:00,49.9,49.6,30.05,SE,146,0.0,2.0,99,0.00,,,0.43,Wunderground v.1.15,2013-01-25 19:26:00,
2013-01-25 11:31:00,49.9,49.6,30.05,SE,146,0.0,0.0,99,0.00,,,0.43,Wunderground v.1.15,2013-01-25 19:31:00,
2013-01-25 11:36:00,49.9,49.6,30.05,SSE,147,0.0,1.0,99,0.00,,,0.43,Wunderground v.1.15,2013-01-25 19:36:00,
2013-01-25 11:41:00,49.9,49.6,30.04,SSE,147,0.0,0.0,99,0.00,,,0.43,Wunderground v.1.15,2013-01-25 19:41:00,
2013-01-25 11:47:00,49.9,49.6,30.04,SW,230,1.0,2.0,99,0.00,,,0.43,Wunderground v.1.15,2013-01-25 19:47:00,
2013-01-25 11:53:00,50.4,50.1,30.03,SW,230,0.0,1.0,99,0.00,,,0.43,Wunderground v.1.15,2013-01-25 19:53:00,
2013-01-25 11:59:00,50.6,50.3,30.03,South,178,0.0,1.0,99,0.00,,,0.43,Wunderground v.1.15,2013-01-25 19:59:00,
2013-01-25 12:05:00,51.0,50.7,30.03,SSE,162,0.0,2.0,99,0.00,,,0.43,Wunderground v.1.15,2013-01-25 20:05:00,
2013-01-25 12:10:00,51.0,50.7,30.03,West,266,0.0,4.0,99,0.00,,,0.43,Wunderground v.1.15,2013-01-25 20:10:00,
2013-01-25 12:16:00,51.3,51.0,30.03,West,281,1.0,4.0,99,0.00,,,0.44,Wunderground v.1.15,2013-01-25 20:16:00,
2013-01-25 12:22:00,50.8,50.3,30.03,West,270,3.0,3.0,98,0.00,,,0.44,Wunderground v.1.15,2013-01-25 20:22:00,
2013-01-25 12:28:00,50.7,49.9,30.02,West,272,4.0,6.0,97,0.00,,,0.44,Wunderground v.1.15,2013-01-25 20:28:00,
2013-01-25 12:34:00,50.6,49.8,30.02,West,273,3.0,4.0,97,0.00,,,0.44,Wunderground v.1.15,2013-01-25 20:34:00,
2013-01-25 12:40:00,50.6,49.8,30.02,West,273,3.0,3.0,97,0.00,,,0.44,Wunderground v.1.15,2013-01-25 20:40:00,
2013-01-25 12:46:00,50.4,49.6,30.02,West,271,2.0,3.0,97,0.00,,,0.44,Wunderground v.1.15,2013-01-25 20:46:00,
2013-01-25 12:52:00,50.4,49.6,30.02,WNW,300,1.0,2.0,97,0.00,,,0.44,Wunderground v.1.15,2013-01-25 20:52:00,
2013-01-25 12:57:00,50.4,49.3,30.02,WNW,300,1.0,2.0,96,0.00,,,0.44,Wunderground v.1.15,2013-01-25 20:57:00,
2013-01-25 13:03:00,50.5,49.7,30.02,WNW,300,0.0,1.0,97,0.00,,,0.44,Wunderground v.1.15,2013-01-25 21:03:00,
2013-01-25 13:08:00,50.5,49.7,30.01,West,273,1.0,4.0,97,0.00,,,0.44,Wunderground v.1.15,2013-01-25 21:08:00,
2013-01-25 13:13:00,50.9,50.1,30.01,West,279,2.0,3.0,97,0.00,,,0.44,Wunderground v.1.15,2013-01-25 21:13:00,
2013-01-25 13:19:00,51.0,49.6,30.01,WNW,298,2.0,5.0,95,0.00,,,0.44,Wunderground v.1.15,2013-01-25 21:19:00,
2013-01-25 13:24:00,51.4,50.0,30.01,SW,215,1.0,3.0,95,0.00,,,0.44,Wunderground v.1.15,2013-01-25 21:24:00,
2013-01-25 13:30:00,51.5,50.1,30.01,West,273,1.0,3.0,95,0.00,,,0.44,Wunderground v.1.15,2013-01-25 21:30:00,
2013-01-25 13:35:00,51.4,49.7,30.01,West,274,1.0,3.0,94,0.00,,,0.44,Wunderground v.1.15,2013-01-25 21:35:00,
2013-01-25 13:41:00,51.3,49.9,30.00,West,275,1.0,2.0,95,0.00,,,0.44,Wunderground v.1.15,2013-01-25 21:41:00,
2013-01-25 13:46:00,51.2,49.8,30.00,WSW,246,1.0,2.0,95,0.00,,,0.44,Wunderground v.1.15,2013-01-25 21:46:00,
2013-01-25 13:52:00,51.1,49.4,30.00,West,276,1.0,2.0,94,0.00,,,0.44,Wunderground v.1.15,2013-01-25 21:52:00,
2013-01-25 13:58:00,51.1,49.7,30.00,West,272,1.0,2.0,95,0.00,,,0.44,Wunderground v.1.15,2013-01-25 21:58:00,
2013-01-25 14:04:00,51.3,49.9,30.00,West,273,1.0,2.0,95,0.00,,,0.44,Wunderground v.1.15,2013-01-25 22:04:00,
2013-01-25 14:10:00,51.0,49.3,30.00,West,281,1.0,1.0,94,0.00,,,0.44,Wunderground v.1.15,2013-01-25 22:10:00,
2013-01-25 14:15:00,50.9,49.5,30.00,West,267,2.0,4.0,95,0.00,,,0.44,Wunderground v.1.15,2013-01-25 22:15:00,
2013-01-25 14:21:00,50.5,49.1,30.00,West,281,2.0,2.0,95,0.00,,,0.44,Wunderground v.1.15,2013-01-25 22:21:00,
2013-01-25 14:26:00,50.4,49.3,30.00,WNW,302,2.0,2.0,96,0.00,,,0.44,Wunderground v.1.15,2013-01-25 22:26:00,
2013-01-25 14:32:00,50.5,49.4,30.00,West,267,2.0,3.0,96,0.00,,,0.44,Wunderground v.1.15,2013-01-25 22:32:00,
2013-01-25 14:38:00,50.5,49.1,30.00,West,276,1.0,3.0,95,0.00,,,0.44,Wunderground v.1.15,2013-01-25 22:38:00,
2013-01-25 14:44:00,50.6,49.2,29.99,West,277,2.0,3.0,95,0.00,,,0.44,Wunderground v.1.15,2013-01-25 22:44:00,
2013-01-25 14:50:00,50.6,49.2,29.99,West,277,2.0,2.0,95,0.00,,,0.44,Wunderground v.1.15,2013-01-25 22:50:00,
2013-01-25 14:56:00,50.6,48.9,29.99,West,277,0.0,2.0,94,0.00,,,0.44,Wunderground v.1.15,2013-01-25 22:56:00,
2013-01-25 15:01:00,50.7,49.0,29.99,West,261,1.0,3.0,94,0.00,,,0.44,Wunderground v.1.15,2013-01-25 23:01:00,
2013-01-25 15:06:00,50.8,49.4,30.00,West,270,2.0,4.0,95,0.00,,,0.44,Wunderground v.1.15,2013-01-25 23:06:00,
2013-01-25 15:11:00,50.7,49.3,30.00,West,275,2.0,2.0,95,0.00,,,0.44,Wunderground v.1.15,2013-01-25 23:11:00,
2013-01-25 15:17:00,50.4,48.7,30.00,West,280,2.0,2.0,94,0.00,,,0.44,Wunderground v.1.15,2013-01-25 23:17:00,
2013-01-25 15:22:00,50.4,49.0,30.00,West,280,1.0,2.0,95,0.00,,,0.44,Wunderground v.1.15,2013-01-25 23:22:00,
2013-01-25 15:28:00,50.2,48.5,30.00,NW,319,1.0,4.0,94,0.00,,,0.44,Wunderground v.1.15,2013-01-25 23:28:00,
2013-01-25 15:34:00,50.0,48.3,30.00,West,267,2.0,2.0,94,0.00,,,0.44,Wunderground v.1.15,2013-01-25 23:34:00,
2013-01-25 15:40:00,49.9,48.2,30.00,West,268,1.0,2.0,94,0.00,,,0.44,Wunderground v.1.15,2013-01-25 23:40:00,
2013-01-25 15:45:00,49.7,48.0,30.00,West,268,1.0,2.0,94,0.00,,,0.44,Wunderground v.1.15,2013-01-25 23:45:00,
2013-01-25 15:51:00,49.6,47.9,30.01,WNW,282,1.0,4.0,94,0.00,,,0.44,Wunderground v.1.15,2013-01-25 23:51:00,
2013-01-25 15:56:00,49.4,47.7,30.01,West,275,3.0,4.0,94,0.00,,,0.44,Wunderground v.1.15,2013-01-25 23:56:00,
2013-01-25 16:01:00,49.1,47.4,30.01,West,280,3.0,3.0,94,0.00,,,0.44,Wunderground v.1.15,2013-01-26 00:01:00,
2013-01-25 16:07:00,48.7,46.8,30.01,West,279,3.0,6.0,93,0.00,,,0.44,Wunderground v.1.15,2013-01-26 00:07:00,
2013-01-25 16:13:00,48.6,47.0,30.00,West,279,2.0,3.0,94,0.00,,,0.44,Wunderground v.1.15,2013-01-26 00:13:00,
2013-01-25 16:19:00,48.2,46.6,30.01,West,275,2.0,4.0,94,0.00,,,0.44,Wunderground v.1.15,2013-01-26 00:19:00,
2013-01-25 16:25:00,47.9,46.3,30.01,West,277,2.0,3.0,94,0.00,,,0.44,Wunderground v.1.15,2013-01-26 00:25:00,
2013-01-25 16:31:00,47.7,46.1,30.01,West,277,1.0,1.0,94,0.00,,,0.44,Wunderground v.1.15,2013-01-26 00:31:00,
2013-01-25 16:36:00,47.4,45.8,30.00,WNW,294,1.0,4.0,94,0.00,,,0.44,Wunderground v.1.15,2013-01-26 00:36:00,
2013-01-25 16:42:00,47.3,45.7,30.00,West,271,1.0,1.0,94,0.00,,,0.44,Wunderground v.1.15,2013-01-26 00:42:00,
2013-01-25 16:47:00,47.2,45.8,30.00,West,271,0.0,1.0,95,0.00,,,0.44,Wunderground v.1.15,2013-01-26 00:47:00,
2013-01-25 16:53:00,47.1,45.7,30.00,SW,223,1.0,4.0,95,0.00,,,0.44,Wunderground v.1.15,2013-01-26 00:53:00,
2013-01-25 16:58:00,46.9,45.5,30.00,SW,225,1.0,4.0,95,0.00,,,0.44,Wunderground v.1.15,2013-01-26 00:58:00,
2013-01-25 17:04:00,46.6,45.0,30.00,NW,310,0.0,2.0,94,0.00,,,0.44,Wunderground v.1.15,2013-01-26 01:04:00,
2013-01-25 17:10:00,46.4,44.8,30.00,NW,310,1.0,1.0,94,0.00,,,0.44,Wunderground v.1.15,2013-01-26 01:10:00,
2013-01-25 17:16:00,46.3,44.9,29.99,NW,310,0.0,1.0,95,0.00,,,0.44,Wunderground v.1.15,2013-01-26 01:16:00,
2013-01-25 17:21:00,46.2,44.8,30.00,NW,310,0.0,0.0,95,0.00,,,0.44,Wunderground v.1.15,2013-01-26 01:21:00,
2013-01-25 17:26:00,46.1,44.7,29.99,NW,310,0.0,0.0,95,0.00,,,0.44,Wunderground v.1.15,2013-01-26 01:26:00,
2013-01-25 17:32:00,46.0,44.6,29.99,NW,310,0.0,0.0,95,0.00,,,0.44,Wunderground v.1.15,2013-01-26 01:32:00,
2013-01-25 17:38:00,46.0,44.9,30.00,NW,310,0.0,0.0,96,0.00,,,0.44,Wunderground v.1.15,2013-01-26 01:38:00,
2013-01-25 17:44:00,45.9,44.8,30.00,NW,310,0.0,0.0,96,0.00,,,0.44,Wunderground v.1.15,2013-01-26 01:44:00,
2013-01-25 17:50:00,45.8,44.7,30.00,NW,310,0.0,0.0,96,0.00,,,0.44,Wunderground v.1.15,2013-01-26 01:50:00,
2013-01-25 17:56:00,45.7,44.6,29.99,NW,310,0.0,0.0,96,0.00,,,0.44,Wunderground v.1.15,2013-01-26 01:56:00,
2013-01-25 18:02:00,45.7,44.6,29.99,NW,310,0.0,0.0,96,0.00,,,0.44,Wunderground v.1.15,2013-01-26 02:02:00,
2013-01-25 18:08:00,45.6,44.5,29.99,NW,310,0.0,0.0,96,0.00,,,0.44,Wunderground v.1.15,2013-01-26 02:08:00,
2013-01-25 18:13:00,45.5,44.4,29.99,NW,310,0.0,0.0,96,0.00,,,0.44,Wunderground v.1.15,2013-01-26 02:13:00,
2013-01-25 18:19:00,45.4,44.3,29.99,NW,310,0.0,0.0,96,0.00,,,0.44,Wunderground v.1.15,2013-01-26 02:19:00,
2013-01-25 18:25:00,45.3,44.2,29.99,NW,310,0.0,0.0,96,0.00,,,0.44,Wunderground v.1.15,2013-01-26 02:25:00,
2013-01-25 18:31:00,45.1,44.0,29.99,East,90,0.0,0.0,96,0.00,,,0.44,Wunderground v.1.15,2013-01-26 02:31:00,
2013-01-25 18:36:00,45.0,43.9,29.99,East,91,0.0,0.0,96,0.00,,,0.44,Wunderground v.1.15,2013-01-26 02:36:00,
2013-01-25 18:42:00,45.0,43.9,29.99,East,91,0.0,0.0,96,0.00,,,0.44,Wunderground v.1.15,2013-01-26 02:42:00,
2013-01-25 18:48:00,44.9,44.1,29.99,East,91,0.0,0.0,97,0.00,,,0.44,Wunderground v.1.15,2013-01-26 02:48:00,
2013-01-25 18:54:00,44.9,44.1,29.99,East,91,0.0,0.0,97,0.00,,,0.44,Wunderground v.1.15,2013-01-26 02:54:00,
2013-01-25 19:00:00,44.8,44.0,29.99,East,91,0.0,0.0,97,0.00,,,0.44,Wunderground v.1.15,2013-01-26 03:00:00,
2013-01-25 19:06:00,44.8,44.0,29.99,East,91,0.0,0.0,97,0.00,,,0.44,Wunderground v.1.15,2013-01-26 03:06:00,
2013-01-25 19:12:00,44.7,43.9,29.99,East,90,0.0,0.0,97,0.00,,,0.44,Wunderground v.1.15,2013-01-26 03:12:00,
2013-01-25 19:18:00,44.7,43.9,29.99,East,91,0.0,1.0,97,0.00,,,0.44,Wunderground v.1.15,2013-01-26 03:18:00,
2013-01-25 19:24:00,44.7,43.9,29.98,East,90,0.0,0.0,97,0.00,,,0.44,Wunderground v.1.15,2013-01-26 03:24:00,
2013-01-25 19:30:00,44.7,43.9,29.98,East,91,0.0,0.0,97,0.00,,,0.44,Wunderground v.1.15,2013-01-26 03:30:00,
2013-01-25 19:35:00,44.7,43.9,29.98,East,91,0.0,0.0,97,0.00,,,0.44,Wunderground v.1.15,2013-01-26 03:35:00,
2013-01-25 19:40:00,44.7,43.9,29.98,East,91,0.0,0.0,97,0.00,,,0.44,Wunderground v.1.15,2013-01-26 03:40:00,
2013-01-25 19:45:00,44.6,43.8,29.98,East,91,0.0,0.0,97,0.00,,,0.44,Wunderground v.1.15,2013-01-26 03:45:00,
2013-01-25 19:50:00,44.5,43.7,29.98,East,91,0.0,0.0,97,0.00,,,0.44,Wunderground v.1.15,2013-01-26 03:50:00,
2013-01-25 19:56:00,44.5,43.7,29.98,East,91,0.0,0.0,97,0.00,,,0.44,Wunderground v.1.15,2013-01-26 03:56:00,
2013-01-25 20:02:00,44.5,43.7,29.98,East,91,0.0,0.0,97,0.00,,,0.44,Wunderground v.1.15,2013-01-26 04:02:00,
2013-01-25 20:07:00,44.4,43.6,29.98,East,91,0.0,0.0,97,0.00,,,0.44,Wunderground v.1.15,2013-01-26 04:07:00,
2013-01-25 20:13:00,44.4,43.6,29.98,East,90,0.0,0.0,97,0.00,,,0.44,Wunderground v.1.15,2013-01-26 04:13:00,
2013-01-25 20:18:00,44.4,43.9,29.98,East,91,0.0,0.0,98,0.00,,,0.44,Wunderground v.1.15,2013-01-26 04:18:00,
2013-01-25 20:24:00,44.4,43.6,29.98,East,91,0.0,0.0,97,0.00,,,0.44,Wunderground v.1.15,2013-01-26 04:24:00,
2013-01-25 20:30:00,44.4,43.6,29.98,East,90,0.0,0.0,97,0.00,,,0.44,Wunderground v.1.15,2013-01-26 04:30:00,
2013-01-25 20:35:00,44.3,43.5,29.98,East,91,0.0,0.0,97,0.00,,,0.44,Wunderground v.1.15,2013-01-26 04:35:00,
2013-01-25 20:41:00,44.3,43.5,29.98,East,91,0.0,0.0,97,0.00,,,0.44,Wunderground v.1.15,2013-01-26 04:41:00,
2013-01-25 20:46:00,44.2,43.4,29.98,East,91,0.0,0.0,97,0.00,,,0.44,Wunderground v.1.15,2013-01-26 04:46:00,
2013-01-25 20:52:00,44.1,43.3,29.97,East,90,0.0,0.0,97,0.00,,,0.44,Wunderground v.1.15,2013-01-26 04:52:00,
2013-01-25 20:58:00,44.0,43.2,29.98,East,91,0.0,0.0,97,0.00,,,0.44,Wunderground v.1.15,2013-01-26 04:58:00,
2013-01-25 21:01:00,43.9,43.1,29.97,East,90,0.0,0.0,97,0.00,,,0.44,Wunderground v.1.15,2013-01-26 05:01:00,
2013-01-25 21:03:00,43.8,43.0,29.97,East,91,0.0,0.0,97,0.00,,,0.44,Wunderground v.1.15,2013-01-26 05:03:00,
2013-01-25 21:04:00,43.8,43.0,29.97,East,91,0.0,0.0,97,0.00,,,0.44,Wunderground v.1.15,2013-01-26 05:04:00,
2013-01-25 21:10:00,43.6,42.8,29.97,East,90,0.0,0.0,97,0.00,,,0.44,Wunderground v.1.15,2013-01-26 05:10:00,
2013-01-25 21:16:00,43.3,42.5,29.97,East,90,0.0,0.0,97,0.00,,,0.44,Wunderground v.1.15,2013-01-26 05:16:00,
2013-01-25 21:22:00,43.0,42.2,29.97,East,90,0.0,0.0,97,0.00,,,0.44,Wunderground v.1.15,2013-01-26 05:22:00,
2013-01-25 21:27:00,42.7,41.9,29.97,East,90,0.0,0.0,97,0.00,,,0.44,Wunderground v.1.15,2013-01-26 05:27:00,
2013-01-25 21:33:00,42.4,41.6,29.97,East,91,0.0,0.0,97,0.00,,,0.44,Wunderground v.1.15,2013-01-26 05:33:00,
2013-01-25 21:39:00,42.1,41.3,29.97,East,91,0.0,0.0,97,0.00,,,0.44,Wunderground v.1.15,2013-01-26 05:39:00,
2013-01-25 21:44:00,41.9,41.1,29.97,East,91,0.0,0.0,97,0.00,,,0.44,Wunderground v.1.15,2013-01-26 05:44:00,
2013-01-25 21:49:00,41.7,40.9,29.97,East,91,0.0,0.0,97,0.00,,,0.44,Wunderground v.1.15,2013-01-26 05:49:00,
2013-01-25 21:55:00,41.5,40.7,29.97,East,91,0.0,0.0,97,0.00,,,0.44,Wunderground v.1.15,2013-01-26 05:55:00,
2013-01-25 22:00:00,41.3,40.5,29.97,East,91,0.0,0.0,97,0.00,,,0.44,Wunderground v.1.15,2013-01-26 06:00:00,
2013-01-25 22:06:00,41.0,40.2,29.97,East,91,0.0,1.0,97,0.00,,,0.44,Wunderground v.1.15,2013-01-26 06:06:00,
2013-01-25 22:12:00,40.8,40.0,29.97,East,91,0.0,0.0,97,0.00,,,0.44,Wunderground v.1.15,2013-01-26 06:12:00,
2013-01-25 22:17:00,40.7,39.9,29.97,East,90,0.0,1.0,97,0.00,,,0.44,Wunderground v.1.15,2013-01-26 06:17:00,
2013-01-25 22:22:00,40.6,39.8,29.97,East,91,0.0,1.0,97,0.00,,,0.44,Wunderground v.1.15,2013-01-26 06:22:00,
2013-01-25 22:27:00,40.6,40.1,29.97,SSE,152,0.0,1.0,98,0.00,,,0.44,Wunderground v.1.15,2013-01-26 06:27:00,
2013-01-25 22:32:00,40.7,40.2,29.97,NE,38,0.0,0.0,98,0.00,,,0.44,Wunderground v.1.15,2013-01-26 06:32:00,
2013-01-25 22:38:00,40.7,40.2,29.97,NE,44,0.0,1.0,98,0.00,,,0.44,Wunderground v.1.15,2013-01-26 06:38:00,
2013-01-25 22:43:00,40.7,40.2,29.97,SSE,163,0.0,2.0,98,0.00,,,0.44,Wunderground v.1.15,2013-01-26 06:43:00,
2013-01-25 22:48:00,40.6,40.1,29.97,SSE,163,0.0,2.0,98,0.00,,,0.44,Wunderground v.1.15,2013-01-26 06:48:00,
2013-01-25 22:54:00,40.7,40.2,29.97,SSE,163,0.0,0.0,98,0.00,,,0.44,Wunderground v.1.15,2013-01-26 06:54:00,
2013-01-25 23:00:00,40.9,40.4,29.97,SSE,163,0.0,0.0,98,0.00,,,0.44,Wunderground v.1.15,2013-01-26 07:00:00,
2013-01-25 23:06:00,41.0,40.5,29.97,SSE,163,0.0,0.0,98,0.00,,,0.44,Wunderground v.1.15,2013-01-26 07:06:00,
2013-01-25 23:11:00,41.1,40.6,29.96,ENE,77,0.0,2.0,98,0.00,,,0.44,Wunderground v.1.15,2013-01-26 07:11:00,
2013-01-25 23:17:00,41.1,40.6,29.96,SE,128,0.0,2.0,98,0.00,,,0.44,Wunderground v.1.15,2013-01-26 07:17:00,
2013-01-25 23:22:00,40.9,40.4,29.96,South,178,0.0,2.0,98,0.00,,,0.44,Wunderground v.1.15,2013-01-26 07:22:00,
2013-01-25 23:27:00,40.8,40.3,29.96,South,178,0.0,2.0,98,0.00,,,0.44,Wunderground v.1.15,2013-01-26 07:27:00,
2013-01-25 23:32:00,40.8,40.3,29.96,South,178,0.0,0.0,98,0.00,,,0.44,Wunderground v.1.15,2013-01-26 07:32:00,
2013-01-25 23:38:00,41.0,40.5,29.96,South,178,0.0,0.0,98,0.00,,,0.44,Wunderground v.1.15,2013-01-26 07:38:00,
2013-01-25 23:44:00,41.0,40.5,29.95,South,178,0.0,1.0,98,0.00,,,0.44,Wunderground v.1.15,2013-01-26 07:44:00,
2013-01-25 23:49:00,41.3,40.8,29.95,ESE,105,0.0,2.0,98,0.00,,,0.44,Wunderground v.1.15,2013-01-26 07:49:00,
2013-01-25 23:54:00,41.5,41.2,29.95,ESE,105,0.0,0.0,99,0.00,,,0.44,Wunderground v.1.15,2013-01-26 07:54:00,
2013-01-25 23:59:00,41.8,41.3,29.95,ESE,105,0.0,1.0,98,0.00,,,0.44,Wunderground v.1.15,2013-01-26 07:59:00,